Observation data for Childress on 11/09/2019      Previous  Date       Current Mesonet Observations  Soil Data  Daily Summary Page  Observations in Plain Language
KCXS 090600Z 20007KT 04/02 A3026 RMK A01 T00370022  RH  091%=      5-min Rain = 0
KCXS 090605Z 20008KT 04/02 A3026 RMK A01 T00380023  RH  091%=      5-min Rain = 0
KCXS 090610Z 20007KT 04/03 A3026 RMK A01 T00400025  RH  091%=      5-min Rain = 0
KCXS 090615Z 20007KT 04/03 A3026 RMK A01 T00400025  RH  092%=      5-min Rain = 0
KCXS 090620Z 20008KT 04/03 A3025 RMK A01 T00390025  RH  092%=      5-min Rain = 0
KCXS 090625Z 20009KT 04/03 A3025 RMK A01 T00390025  RH  092%=      5-min Rain = 0
KCXS 090630Z 20009KT 04/03 A3025 RMK A01 T00420029  RH  093%=      5-min Rain = 0
KCXS 090635Z 20009KT 05/03 A3024 RMK A01 T00460031  RH  092%=      5-min Rain = 0
KCXS 090640Z 21010KT 05/03 A3024 RMK A01 T00490034  RH  092%=      5-min Rain = 0
KCXS 090645Z 20009KT 05/03 A3024 RMK A01 T00500034  RH  091%=      5-min Rain = 0
KCXS 090650Z 21009KT 05/03 A3024 RMK A01 T00490034  RH  092%=      5-min Rain = 0
KCXS 090655Z 20009KT 05/03 A3024 RMK A01 T00490034  RH  092%=      5-min Rain = 0
KCXS 090700Z 20008KT 05/03 A3024 RMK A01 T00480034  RH  092%=      5-min Rain = 0
KCXS 090705Z 20008KT 05/03 A3024 RMK A01 T00470033  RH  092%=      5-min Rain = 0
KCXS 090710Z 20009KT 05/03 A3024 RMK A01 T00460033  RH  093%=      5-min Rain = 0
KCXS 090715Z 20009KT 05/03 A3024 RMK A01 T00450032  RH  093%=      5-min Rain = 0
KCXS 090720Z 21009KT 04/03 A3023 RMK A01 T00440031  RH  093%=      5-min Rain = 0
KCXS 090725Z 21009KT 04/03 A3023 RMK A01 T00420031  RH  094%=      5-min Rain = 0
KCXS 090730Z 21009KT 04/03 A3023 RMK A01 T00420031  RH  094%=      5-min Rain = 0
KCXS 090735Z 21009KT 04/03 A3023 RMK A01 T00420032  RH  095%=      5-min Rain = 0
KCXS 090740Z 21009KT 04/03 A3023 RMK A01 T00430033  RH  095%=      5-min Rain = 0
KCXS 090745Z 21010KT 04/03 A3023 RMK A01 T00430032  RH  094%=      5-min Rain = 0
KCXS 090750Z 21009KT 04/03 A3023 RMK A01 T00420032  RH  095%=      5-min Rain = 0
KCXS 090755Z 21009KT 04/03 A3023 RMK A01 T00420033  RH  095%=      5-min Rain = 0
KCXS 090800Z 22009KT 04/03 A3023 RMK A01 T00440034  RH  095%=      5-min Rain = 0
KCXS 090805Z 22009KT 04/03 A3023 RMK A01 T00440033  RH  095%=      5-min Rain = 0
KCXS 090810Z 21009KT 04/03 A3023 RMK A01 T00410032  RH  095%=      5-min Rain = 0
KCXS 090815Z 21008KT 04/03 A3022 RMK A01 T00400032  RH  096%=      5-min Rain = 0
KCXS 090820Z 21007KT 04/03 A3022 RMK A01 T00410033  RH  096%=      5-min Rain = 0
KCXS 090825Z 21007KT 04/03 A3022 RMK A01 T00410034  RH  097%=      5-min Rain = 0
KCXS 090830Z 21008KT 04/03 A3022 RMK A01 T00410034  RH  097%=      5-min Rain = 0
KCXS 090835Z 21008KT 04/04 A3022 RMK A01 T00420036  RH  097%=      5-min Rain = 0
KCXS 090840Z 22010KT 05/04 A3022 RMK A01 T00460039  RH  097%=      5-min Rain = 0
KCXS 090845Z 22010KT 05/04 A3021 RMK A01 T00480040  RH  096%=      5-min Rain = 0
KCXS 090850Z 22010KT 05/04 A3021 RMK A01 T00460038  RH  096%=      5-min Rain = 0
KCXS 090855Z 22010KT 05/04 A3021 RMK A01 T00460038  RH  097%=      5-min Rain = 0
KCXS 090900Z 21009KT 05/04 A3021 RMK A01 T00460038  RH  097%=      5-min Rain = 0
KCXS 090905Z 21008KT 05/04 A3021 RMK A01 T00460039  RH  097%=      5-min Rain = 0
KCXS 090910Z 21008KT 05/04 A302 RMK A01 T00460038  RH  097%=      5-min Rain = 0
KCXS 090915Z 21009KT 04/04 A302 RMK A01 T00440036  RH  097%=      5-min Rain = 0
KCXS 090920Z 21009KT 04/04 A302 RMK A01 T00420035  RH  097%=      5-min Rain = 0
KCXS 090925Z 22009KT 04/04 A302 RMK A01 T00420035  RH  097%=      5-min Rain = 0
KCXS 090930Z 22011KT 04/04 A3019 RMK A01 T00420036  RH  097%=      5-min Rain = 0
KCXS 090935Z 22009KT 04/04 A3019 RMK A01 T00440038  RH  098%=      5-min Rain = 0
KCXS 090940Z 22009KT 05/04 A3019 RMK A01 T00460039  RH  097%=      5-min Rain = 0
KCXS 090945Z 23008KT 05/04 A302 RMK A01 T00480041  RH  097%=      5-min Rain = 0
KCXS 090950Z 23008KT 05/04 A3019 RMK A01 T00470039  RH  096%=      5-min Rain = 0
KCXS 090955Z 24007KT 04/04 A3019 RMK A01 T00440036  RH  096%=      5-min Rain = 0
KCXS 091000Z 24006KT 04/03 A3019 RMK A01 T00410033  RH  097%=      5-min Rain = 0
KCXS 091005Z 25006KT 04/03 A3019 RMK A01 T00390033  RH  097%=      5-min Rain = 0
KCXS 091010Z 26005KT 04/03 A3019 RMK A01 T00390033  RH  098%=      5-min Rain = 0
KCXS 091015Z 26006KT 04/03 A3019 RMK A01 T00380031  RH  098%=      5-min Rain = 0
KCXS 091020Z 26006KT 04/03 A3019 RMK A01 T00350029  RH  097%=      5-min Rain = 0
KCXS 091025Z 25007KT 03/03 A3018 RMK A01 T00340029  RH  098%=      5-min Rain = 0
KCXS 091030Z 24008KT 04/03 A3018 RMK A01 T00360032  RH  099%=      5-min Rain = 0
KCXS 091035Z 23009KT 04/03 A3018 RMK A01 T00370032  RH  098%=      5-min Rain = 0
KCXS 091040Z 23008KT 04/03 A3018 RMK A01 T00390034  RH  099%=      5-min Rain = 0
KCXS 091045Z 23009KT 04/04 A3018 RMK A01 T00410036  RH  098%=      5-min Rain = 0
KCXS 091050Z 23008KT 04/04 A3018 RMK A01 T00440038  RH  098%=      5-min Rain = 0
KCXS 091055Z 23007KT 04/04 A3018 RMK A01 T00440038  RH  098%=      5-min Rain = 0
KCXS 091100Z 24007KT 05/04 A3018 RMK A01 T00450039  RH  098%=      5-min Rain = 0
KCXS 091105Z 23007KT 05/04 A3018 RMK A01 T00450039  RH  098%=      5-min Rain = 0
KCXS 091110Z 22008KT 04/04 A3018 RMK A01 T00440038  RH  098%=      5-min Rain = 0
KCXS 091115Z 23008KT 05/04 A3018 RMK A01 T00450039  RH  098%=      5-min Rain = 0
KCXS 091120Z 23009KT 05/04 A3018 RMK A01 T00480042  RH  098%=      5-min Rain = 0
KCXS 091125Z 24009KT 05/05 A3018 RMK A01 T00530046  RH  097%=      5-min Rain = 0
KCXS 091130Z 24010KT 05/05 A3018 RMK A01 T00530045  RH  096%=      5-min Rain = 0
KCXS 091135Z 24010KT 05/04 A3018 RMK A01 T00530044  RH  096%=      5-min Rain = 0
KCXS 091140Z 24009KT 05/04 A3018 RMK A01 T00510041  RH  095%=      5-min Rain = 0
KCXS 091145Z 25008KT 05/04 A3018 RMK A01 T00500040  RH  095%=      5-min Rain = 0
KCXS 091150Z 25009KT 05/04 A3018 RMK A01 T00490040  RH  095%=      5-min Rain = 0
KCXS 091155Z 25008KT 05/04 A3018 RMK A01 T00520042  RH  095%=      5-min Rain = 0
KCXS 091200Z 25008KT 05/04 A3018 RMK A01 T00540043  RH  095%=      5-min Rain = 0
KCXS 091205Z 25007KT 06/04 A3018 RMK A01 T00550043  RH  094%=      5-min Rain = 0
KCXS 091210Z 26005KT 05/04 A3018 RMK A01 T00530042  RH  094%=      5-min Rain = 0
KCXS 091215Z 27005KT 05/04 A3019 RMK A01 T00520042  RH  095%=      5-min Rain = 0
KCXS 091220Z 27005KT 05/04 A3019 RMK A01 T00500039  RH  094%=      5-min Rain = 0
KCXS 091225Z 27006KT 05/04 A3019 RMK A01 T00480038  RH  095%=      5-min Rain = 0
KCXS 091230Z 27006KT 05/04 A3019 RMK A01 T00460037  RH  096%=      5-min Rain = 0
KCXS 091235Z 26007KT 04/04 A3019 RMK A01 T00440036  RH  096%=      5-min Rain = 0
KCXS 091240Z 26008KT 04/04 A3019 RMK A01 T00440036  RH  096%=      5-min Rain = 0
KCXS 091245Z 26007KT 04/04 A3019 RMK A01 T00430035  RH  096%=      5-min Rain = 0
KCXS 091250Z 26007KT 04/04 A3019 RMK A01 T00430035  RH  097%=      5-min Rain = 0
KCXS 091255Z 27007KT 04/04 A3019 RMK A01 T00430035  RH  096%=      5-min Rain = 0
KCXS 091300Z 26008KT 04/04 A3019 RMK A01 T00440036  RH  096%=      5-min Rain = 0
KCXS 091305Z 26008KT 05/04 A3019 RMK A01 T00450036  RH  096%=      5-min Rain = 0
KCXS 091310Z 27008KT 05/04 A3019 RMK A01 T00450036  RH  095%=      5-min Rain = 0
KCXS 091315Z 27007KT 05/04 A3019 RMK A01 T00460036  RH  095%=      5-min Rain = 0
KCXS 091320Z 26007KT 05/04 A3019 RMK A01 T00460037  RH  095%=      5-min Rain = 0
KCXS 091325Z 27007KT 05/04 A3019 RMK A01 T00510040  RH  094%=      5-min Rain = 0
KCXS 091330Z 27008KT 05/04 A3019 RMK A01 T00520039  RH  093%=      5-min Rain = 0
KCXS 091335Z 27009KT 05/04 A3018 RMK A01 T00530038  RH  092%=      5-min Rain = 0
KCXS 091340Z 26009KT 06/04 A3018 RMK A01 T00550040  RH  091%=      5-min Rain = 0
KCXS 091345Z 27007KT 06/04 A3019 RMK A01 T00570041  RH  091%=      5-min Rain = 0
KCXS 091350Z 27006KT 06/04 A3019 RMK A01 T00590042  RH  091%=      5-min Rain = 0
KCXS 091355Z 28007KT 06/04 A3019 RMK A01 T00600042  RH  090%=      5-min Rain = 0
KCXS 091400Z 29007KT 06/04 A302 RMK A01 T00600043  RH  091%=      5-min Rain = 0
KCXS 091405Z 29006KT 06/04 A302 RMK A01 T00600043  RH  091%=      5-min Rain = 0
KCXS 091410Z 28007KT 06/04 A302 RMK A01 T00610043  RH  090%=      5-min Rain = 0
KCXS 091415Z 28007KT 06/05 A302 RMK A01 T00620045  RH  091%=      5-min Rain = 0
KCXS 091420Z 28007KT 06/05 A302 RMK A01 T00640046  RH  090%=      5-min Rain = 0
KCXS 091425Z 28008KT 07/05 A302 RMK A01 T00670046  RH  088%=      5-min Rain = 0
KCXS 091430Z 29008KT 07/05 A3021 RMK A01 T00700047  RH  088%=      5-min Rain = 0
KCXS 091435Z 28008KT 07/05 A302 RMK A01 T00720047  RH  086%=      5-min Rain = 0
KCXS 091440Z 29008KT 07/05 A3021 RMK A01 T00740049  RH  086%=      5-min Rain = 0
KCXS 091445Z 29008KT 08/05 A302 RMK A01 T00760048  RH  084%=      5-min Rain = 0
KCXS 091450Z 29008KT 08/05 A3021 RMK A01 T00790050  RH  084%=      5-min Rain = 0
KCXS 091455Z 29008KT 08/05 A3021 RMK A01 T00820050  RH  082%=      5-min Rain = 0
KCXS 091500Z 29007KT 09/05 A3021 RMK A01 T00850052  RH  082%=      5-min Rain = 0
KCXS 091505Z 28008KT 09/05 A3021 RMK A01 T00870052  RH  080%=      5-min Rain = 0
KCXS 091510Z 28007KT 09/05 A3021 RMK A01 T00910054  RH  079%=      5-min Rain = 0
KCXS 091515Z 27007KT 10/06 A3021 RMK A01 T00950055  RH  078%=      5-min Rain = 0
KCXS 091520Z 28007KT 10/05 A3021 RMK A01 T00990054  RH  076%=      5-min Rain = 0
KCXS 091525Z 28006KT 10/06 A3021 RMK A01 T01030056  RH  074%=      5-min Rain = 0
KCXS 091530Z 29007KT 11/06 A3021 RMK A01 T01060055  RH  072%=      5-min Rain = 0
KCXS 091535Z 28006KT 11/06 A3021 RMK A01 T01100056  RH  071%=      5-min Rain = 0
KCXS 091540Z 28007KT 12/06 A302 RMK A01 T01150056  RH  069%=      5-min Rain = 0
KCXS 091545Z 29006KT 12/06 A3021 RMK A01 T01190057  RH  068%=      5-min Rain = 0
KCXS 091550Z 29007KT 12/06 A3021 RMK A01 T01220058  RH  066%=      5-min Rain = 0
KCXS 091555Z 28006KT 13/06 A302 RMK A01 T01260058  RH  064%=      5-min Rain = 0
KCXS 091600Z 29006KT 13/06 A3021 RMK A01 T01290059  RH  064%=      5-min Rain = 0
KCXS 091605Z 30006KT 13/06 A3021 RMK A01 T01330059  RH  062%=      5-min Rain = 0
KCXS 091610Z 28005KT 14/06 A3021 RMK A01 T01350059  RH  062%=      5-min Rain = 0
KCXS 091615Z 27005KT 14/06 A3021 RMK A01 T01400060  RH  060%=      5-min Rain = 0
KCXS 091620Z 28004KT 14/06 A302 RMK A01 T01440061  RH  058%=      5-min Rain = 0
KCXS 091625Z 27004KT 15/06 A302 RMK A01 T01460059  RH  057%=      5-min Rain = 0
KCXS 091630Z 28003KT 15/06 A302 RMK A01 T01480057  RH  056%=      5-min Rain = 0
KCXS 091635Z 25004KT 15/06 A302 RMK A01 T01510057  RH  055%=      5-min Rain = 0
KCXS 091640Z 25004KT 16/06 A302 RMK A01 T01560056  RH  053%=      5-min Rain = 0
KCXS 091645Z 27003KT 16/06 A302 RMK A01 T01600057  RH  052%=      5-min Rain = 0
KCXS 091650Z 27003KT 16/06 A302 RMK A01 T01620057  RH  051%=      5-min Rain = 0
KCXS 091655Z 23003KT 17/06 A302 RMK A01 T01660056  RH  049%=      5-min Rain = 0
KCXS 091700Z 21002KT 17/06 A302 RMK A01 T01710056  RH  048%=      5-min Rain = 0
KCXS 091705Z 22003KT 17/05 A302 RMK A01 T01730054  RH  047%=      5-min Rain = 0
KCXS 091710Z 22002KT 17/05 A302 RMK A01 T01720053  RH  047%=      5-min Rain = 0
KCXS 091715Z 22004KT 18/06 A302 RMK A01 T01770056  RH  046%=      5-min Rain = 0
KCXS 091720Z 21002G8KT 18/06 A302 RMK A01 T01780055  RH  046%=      5-min Rain = 0
KCXS 091725Z 20004KT 18/05 A302 RMK A01 T01790054  RH  045%=      5-min Rain = 0
KCXS 091730Z 19003KT 18/05 A3019 RMK A01 T01830054  RH  044%=      5-min Rain = 0
KCXS 091735Z 19002KT 18/06 A3019 RMK A01 T01820055  RH  044%=      5-min Rain = 0
KCXS 091740Z 17004KT 19/06 A3019 RMK A01 T01860055  RH  043%=      5-min Rain = 0
KCXS 091745Z 17004KT 19/06 A3019 RMK A01 T01910056  RH  042%=      5-min Rain = 0
KCXS 091750Z 21005KT 19/06 A3018 RMK A01 T01910056  RH  042%=      5-min Rain = 0
KCXS 091755Z 22004KT 19/06 A3018 RMK A01 T01920058  RH  043%=      5-min Rain = 0
KCXS 091800Z 19005KT 20/06 A3018 RMK A01 T01970060  RH  042%=      5-min Rain = 0
KCXS 091805Z 19005KT 20/06 A3017 RMK A01 T02000061  RH  041%=      5-min Rain = 0
KCXS 091810Z 18004KT 20/06 A3017 RMK A01 T02030063  RH  041%=      5-min Rain = 0
KCXS 091815Z 19005KT 20/06 A3016 RMK A01 T02010058  RH  040%=      5-min Rain = 0
KCXS 091820Z 20006G11KT 21/06 A3016 RMK A01 T02060058  RH  039%=      5-min Rain = 0
KCXS 091825Z 19006KT 21/06 A3015 RMK A01 T02090060  RH  039%=      5-min Rain = 0
KCXS 091830Z 19005KT 21/06 A3015 RMK A01 T02090061  RH  039%=      5-min Rain = 0
KCXS 091835Z 20007KT 21/05 A3015 RMK A01 T02120054  RH  036%=      5-min Rain = 0
KCXS 091840Z 20007KT 21/05 A3014 RMK A01 T02140052  RH  035%=      5-min Rain = 0
KCXS 091845Z 21006KT 22/05 A3014 RMK A01 T02160048  RH  034%=      5-min Rain = 0
KCXS 091850Z 21007KT 22/05 A3014 RMK A01 T02220049  RH  033%=      5-min Rain = 0
KCXS 091855Z 20007KT 22/05 A3013 RMK A01 T02210045  RH  032%=      5-min Rain = 0
KCXS 091900Z 21009KT 22/04 A3013 RMK A01 T02200037  RH  031%=      5-min Rain = 0
KCXS 091905Z 22007KT 22/04 A3013 RMK A01 T02210041  RH  031%=      5-min Rain = 0
KCXS 091910Z 21009KT 22/04 A3013 RMK A01 T02230039  RH  031%=      5-min Rain = 0
KCXS 091915Z 23007KT 23/04 A3012 RMK A01 T02260043  RH  031%=      5-min Rain = 0
KCXS 091920Z 21007KT 23/04 A3012 RMK A01 T02280040  RH  030%=      5-min Rain = 0
KCXS 091925Z 22009KT 23/03 A3012 RMK A01 T02310034  RH  028%=      5-min Rain = 0
KCXS 091930Z 22008KT 23/04 A3012 RMK A01 T02320036  RH  028%=      5-min Rain = 0
KCXS 091935Z 21008KT 23/04 A3012 RMK A01 T02320036  RH  028%=      5-min Rain = 0
KCXS 091940Z 21007KT 24/03 A3011 RMK A01 T02350034  RH  027%=      5-min Rain = 0
KCXS 091945Z 22007KT 24/03 A3011 RMK A01 T02380034  RH  027%=      5-min Rain = 0
KCXS 091950Z 20006KT 24/04 A3011 RMK A01 T02370037  RH  028%=      5-min Rain = 0
KCXS 091955Z 20006KT 24/04 A3011 RMK A01 T02440042  RH  027%=      5-min Rain = 0
KCXS 092000Z 19005G10KT 24/05 A3011 RMK A01 T02420045  RH  029%=      5-min Rain = 0
KCXS 092005Z 20006KT 24/04 A301 RMK A01 T02410042  RH  028%=      5-min Rain = 0
KCXS 092010Z 22005KT 24/03 A301 RMK A01 T02410033  RH  026%=      5-min Rain = 0
KCXS 092015Z 20006KT 24/04 A301 RMK A01 T02430041  RH  028%=      5-min Rain = 0
KCXS 092020Z 21004KT 24/04 A301 RMK A01 T02440041  RH  027%=      5-min Rain = 0
KCXS 092025Z 21007KT 25/04 A301 RMK A01 T02470037  RH  026%=      5-min Rain = 0
KCXS 092030Z 21007KT 25/03 A301 RMK A01 T02470034  RH  025%=      5-min Rain = 0
KCXS 092035Z 22005KT 25/04 A3009 RMK A01 T02490038  RH  026%=      5-min Rain = 0
KCXS 092040Z 21007G12KT 25/04 A3009 RMK A01 T02470038  RH  026%=      5-min Rain = 0
KCXS 092045Z 22008KT 25/04 A3009 RMK A01 T02480038  RH  026%=      5-min Rain = 0
KCXS 092050Z 20007KT 25/04 A3008 RMK A01 T02510041  RH  026%=      5-min Rain = 0
KCXS 092055Z 19006G11KT 25/04 A3008 RMK A01 T02510044  RH  027%=      5-min Rain = 0
KCXS 092100Z 22005KT 25/04 A3008 RMK A01 T02500044  RH  027%=      5-min Rain = 0
KCXS 092105Z 19006KT 25/04 A3008 RMK A01 T02530043  RH  026%=      5-min Rain = 0
KCXS 092110Z 19009KT 25/04 A3008 RMK A01 T02510042  RH  026%=      5-min Rain = 0
KCXS 092115Z 18007KT 25/04 A3008 RMK A01 T02530041  RH  026%=      5-min Rain = 0
KCXS 092120Z 20006G12KT 26/04 A3007 RMK A01 T02560037  RH  025%=      5-min Rain = 0
KCXS 092125Z 19008KT 26/03 A3007 RMK A01 T02560032  RH  024%=      5-min Rain = 0
KCXS 092130Z 21009G14KT 26/03 A3007 RMK A01 T02560031  RH  024%=      5-min Rain = 0
KCXS 092135Z 22008KT 26/03 A3007 RMK A01 T02550034  RH  024%=      5-min Rain = 0
KCXS 092140Z 21008G13KT 26/04 A3007 RMK A01 T02560036  RH  025%=      5-min Rain = 0
KCXS 092145Z 21008KT 26/04 A3006 RMK A01 T02550037  RH  025%=      5-min Rain = 0
KCXS 092150Z 19007KT 26/04 A3006 RMK A01 T02560041  RH  025%=      5-min Rain = 0
KCXS 092155Z 19008KT 26/04 A3006 RMK A01 T02560042  RH  026%=      5-min Rain = 0
KCXS 092200Z 21006KT 26/04 A3006 RMK A01 T02560042  RH  026%=      5-min Rain = 0
KCXS 092205Z 20009KT 26/03 A3006 RMK A01 T02570032  RH  024%=      5-min Rain = 0
KCXS 092210Z 20008KT 26/03 A3005 RMK A01 T02560026  RH  023%=      5-min Rain = 0
KCXS 092215Z 19007KT 26/04 A3005 RMK A01 T02550036  RH  025%=      5-min Rain = 0
KCXS 092220Z 20007KT 26/03 A3005 RMK A01 T02550026  RH  023%=      5-min Rain = 0
KCXS 092225Z 22008KT 25/02 A3005 RMK A01 T02540019  RH  022%=      5-min Rain = 0
KCXS 092230Z 20009KT 25/02 A3005 RMK A01 T02520018  RH  022%=      5-min Rain = 0
KCXS 092235Z 20006KT 25/02 A3005 RMK A01 T02520021  RH  023%=      5-min Rain = 0
KCXS 092240Z 19008KT 25/03 A3005 RMK A01 T02510026  RH  024%=      5-min Rain = 0
KCXS 092245Z 19007KT 25/03 A3005 RMK A01 T02480027  RH  024%=      5-min Rain = 0
KCXS 092250Z 19006KT 25/03 A3005 RMK A01 T02460027  RH  024%=      5-min Rain = 0
KCXS 092255Z 19008KT 24/03 A3005 RMK A01 T02430025  RH  024%=      5-min Rain = 0
KCXS 092300Z 20007KT 24/02 A3005 RMK A01 T02400024  RH  025%=      5-min Rain = 0
KCXS 092305Z 19008KT 24/02 A3005 RMK A01 T02380023  RH  025%=      5-min Rain = 0
KCXS 092310Z 20009KT 24/02 A3005 RMK A01 T02350019  RH  025%=      5-min Rain = 0
KCXS 092315Z 20008KT 23/02 A3005 RMK A01 T02310016  RH  025%=      5-min Rain = 0
KCXS 092320Z 20008KT 23/01 A3005 RMK A01 T02260014  RH  025%=      5-min Rain = 0
KCXS 092325Z 20008KT 22/02 A3005 RMK A01 T02220015  RH  026%=      5-min Rain = 0
KCXS 092330Z 20008KT 22/02 A3005 RMK A01 T02170017  RH  027%=      5-min Rain = 0
KCXS 092335Z 19008KT 21/02 A3005 RMK A01 T02120018  RH  028%=      5-min Rain = 0
KCXS 092340Z 19007KT 21/02 A3005 RMK A01 T02060019  RH  029%=      5-min Rain = 0
KCXS 092345Z 19007KT 20/02 A3005 RMK A01 T01990020  RH  031%=      5-min Rain = 0
KCXS 092350Z 19008KT 20/02 A3005 RMK A01 T01960020  RH  031%=      5-min Rain = 0
KCXS 092355Z 19008KT 20/02 A3005 RMK A01 T01960019  RH  031%=      5-min Rain = 0
KCXS 100000Z 20008KT 20/02 A3005 RMK A01 T01950018  RH  031%=      5-min Rain = 0
KCXS 100005Z 20008KT 19/02 A3005 RMK A01 T01940017  RH  031%=      5-min Rain = 0
KCXS 100010Z 20009KT 19/02 A3005 RMK A01 T01940016  RH  031%=      5-min Rain = 0
KCXS 100015Z 20009KT 19/02 A3005 RMK A01 T01920016  RH  031%=      5-min Rain = 0
KCXS 100020Z 20008KT 19/02 A3005 RMK A01 T01880017  RH  032%=      5-min Rain = 0
KCXS 100025Z 20009KT 19/02 A3005 RMK A01 T01870017  RH  032%=      5-min Rain = 0
KCXS 100030Z 20009KT 19/02 A3005 RMK A01 T01880017  RH  032%=      5-min Rain = 0
KCXS 100035Z 18008KT 18/02 A3005 RMK A01 T01820018  RH  034%=      5-min Rain = 0
KCXS 100040Z 18007KT 17/02 A3006 RMK A01 T01710019  RH  036%=      5-min Rain = 0
KCXS 100045Z 18007KT 17/02 A3006 RMK A01 T01680019  RH  037%=      5-min Rain = 0
KCXS 100050Z 18008KT 17/02 A3005 RMK A01 T01660020  RH  038%=      5-min Rain = 0
KCXS 100055Z 18008KT 17/02 A3006 RMK A01 T01660021  RH  038%=      5-min Rain = 0
KCXS 100100Z 18008KT 16/02 A3005 RMK A01 T01600022  RH  040%=      5-min Rain = 0
KCXS 100105Z 18008KT 16/02 A3005 RMK A01 T01590024  RH  041%=      5-min Rain = 0
KCXS 100110Z 18009KT 16/03 A3006 RMK A01 T01580027  RH  042%=      5-min Rain = 0
KCXS 100115Z 19009KT 16/03 A3006 RMK A01 T01570029  RH  043%=      5-min Rain = 0
KCXS 100120Z 19009KT 15/03 A3005 RMK A01 T01540029  RH  044%=      5-min Rain = 0
KCXS 100125Z 19009KT 15/03 A3006 RMK A01 T01510030  RH  045%=      5-min Rain = 0
KCXS 100130Z 19010KT 15/03 A3006 RMK A01 T01500032  RH  046%=      5-min Rain = 0
KCXS 100135Z 19010KT 15/03 A3006 RMK A01 T01490033  RH  046%=      5-min Rain = 0
KCXS 100140Z 19010KT 15/03 A3006 RMK A01 T01480034  RH  047%=      5-min Rain = 0
KCXS 100145Z 19010KT 15/04 A3005 RMK A01 T01460035  RH  048%=      5-min Rain = 0
KCXS 100150Z 19010KT 15/04 A3006 RMK A01 T01460036  RH  049%=      5-min Rain = 0
KCXS 100155Z 19010KT 15/04 A3006 RMK A01 T01450038  RH  050%=      5-min Rain = 0
KCXS 100200Z 19010KT 15/04 A3006 RMK A01 T01460040  RH  050%=      5-min Rain = 0
KCXS 100205Z 19010KT 14/04 A3006 RMK A01 T01430041  RH  051%=      5-min Rain = 0
KCXS 100210Z 19010KT 14/04 A3005 RMK A01 T01410044  RH  053%=      5-min Rain = 0
KCXS 100215Z 19010KT 14/05 A3005 RMK A01 T01400046  RH  054%=      5-min Rain = 0
KCXS 100220Z 19010KT 14/05 A3005 RMK A01 T01420049  RH  055%=      5-min Rain = 0
KCXS 100225Z 19010KT 14/05 A3005 RMK A01 T01430051  RH  055%=      5-min Rain = 0
KCXS 100230Z 19010KT 14/05 A3005 RMK A01 T01430052  RH  056%=      5-min Rain = 0
KCXS 100235Z 19010KT 14/05 A3005 RMK A01 T01400052  RH  057%=      5-min Rain = 0
KCXS 100240Z 19010KT 14/05 A3005 RMK A01 T01400053  RH  057%=      5-min Rain = 0
KCXS 100245Z 18010KT 14/05 A3005 RMK A01 T01370053  RH  058%=      5-min Rain = 0
KCXS 100250Z 18010KT 13/05 A3005 RMK A01 T01330053  RH  060%=      5-min Rain = 0
KCXS 100255Z 19010KT 13/05 A3005 RMK A01 T01310054  RH  061%=      5-min Rain = 0
KCXS 100300Z 19010KT 13/06 A3005 RMK A01 T01320056  RH  061%=      5-min Rain = 0
KCXS 100305Z 19010KT 13/06 A3005 RMK A01 T01340058  RH  062%=      5-min Rain = 0
KCXS 100310Z 19010KT 13/06 A3005 RMK A01 T01340060  RH  062%=      5-min Rain = 0
KCXS 100315Z 19010KT 13/06 A3005 RMK A01 T01330060  RH  063%=      5-min Rain = 0
KCXS 100320Z 19010KT 13/06 A3005 RMK A01 T01330062  RH  064%=      5-min Rain = 0
KCXS 100325Z 19011KT 13/06 A3005 RMK A01 T01330062  RH  064%=      5-min Rain = 0
KCXS 100330Z 19010KT 13/06 A3005 RMK A01 T01300062  RH  065%=      5-min Rain = 0
KCXS 100335Z 19011KT 13/06 A3006 RMK A01 T01290063  RH  066%=      5-min Rain = 0
KCXS 100340Z 19011KT 13/06 A3006 RMK A01 T01290064  RH  066%=      5-min Rain = 0
KCXS 100345Z 19011KT 13/07 A3006 RMK A01 T01300066  RH  067%=      5-min Rain = 0
KCXS 100350Z 19011KT 13/07 A3006 RMK A01 T01310067  RH  067%=      5-min Rain = 0
KCXS 100355Z 19010KT 13/07 A3006 RMK A01 T01290067  RH  068%=      5-min Rain = 0
KCXS 100400Z 19010KT 13/07 A3006 RMK A01 T01270067  RH  069%=      5-min Rain = 0
KCXS 100405Z 20011KT 13/07 A3006 RMK A01 T01290069  RH  068%=      5-min Rain = 0
KCXS 100410Z 20012KT 13/07 A3006 RMK A01 T01330071  RH  068%=      5-min Rain = 0
KCXS 100415Z 20012KT 14/07 A3006 RMK A01 T01350072  RH  068%=      5-min Rain = 0
KCXS 100420Z 20012KT 13/07 A3006 RMK A01 T01330072  RH  068%=      5-min Rain = 0
KCXS 100425Z 20012KT 13/07 A3006 RMK A01 T01340072  RH  068%=      5-min Rain = 0
KCXS 100430Z 20012KT 14/07 A3006 RMK A01 T01350073  RH  068%=      5-min Rain = 0
KCXS 100435Z 19011KT 13/07 A3006 RMK A01 T01330073  RH  068%=      5-min Rain = 0
KCXS 100440Z 20012KT 13/07 A3006 RMK A01 T01320072  RH  069%=      5-min Rain = 0
KCXS 100445Z 19012KT 13/07 A3006 RMK A01 T01320072  RH  069%=      5-min Rain = 0
KCXS 100450Z 19011KT 13/07 A3006 RMK A01 T01300072  RH  070%=      5-min Rain = 0
KCXS 100455Z 20011KT 13/07 A3006 RMK A01 T01290073  RH  070%=      5-min Rain = 0
KCXS 100500Z 20012KT 13/07 A3006 RMK A01 T01290073  RH  071%=      5-min Rain = 0
KCXS 100505Z 20012KT 13/07 A3006 RMK A01 T01300073  RH  070%=      5-min Rain = 0
KCXS 100510Z 20012KT 13/07 A3006 RMK A01 T01290073  RH  071%=      5-min Rain = 0
KCXS 100515Z 20012KT 13/07 A3005 RMK A01 T01290073  RH  071%=      5-min Rain = 0
KCXS 100520Z 19011KT 13/07 A3005 RMK A01 T01280073  RH  071%=      5-min Rain = 0
KCXS 100525Z 19011KT 12/07 A3005 RMK A01 T01240072  RH  072%=      5-min Rain = 0
KCXS 100530Z 20011KT 12/07 A3005 RMK A01 T01220072  RH  073%=      5-min Rain = 0
KCXS 100535Z 20011KT 12/07 A3005 RMK A01 T01220072  RH  074%=      5-min Rain = 0
KCXS 100540Z 20011KT 12/07 A3005 RMK A01 T01220072  RH  073%=      5-min Rain = 0
KCXS 100545Z 19011KT 12/07 A3004 RMK A01 T01220073  RH  074%=      5-min Rain = 0
KCXS 100550Z 20011KT 12/07 A3005 RMK A01 T01220073  RH  074%=      5-min Rain = 0
KCXS 100555Z 20012KT 12/07 A3005 RMK A01 T01220073  RH  074%=      5-min Rain = 0

Page generated in 0.015 seconds.